aviador You're here:

EPZG Decoded Metar

ZIELONA GORA in POLAND
Report Time2017-11-25 03:00:00
UTC Time2017-11-25 03:35:35
Flight Rules ifr IFR
Wind080° at 03 kt
W.Decomp.*RWY 06: 2.9 kt HW 0.9 kt RCW
W.Rank080° ranks 9
Current wind is below 080° avg. (6.5)
Visibility6000 m
Phenomena:N/A
Clouds:Few 003 Hf
Overcast 007 Hf
Ceiling700 ft
Temp07°C (ISA -8)
Dew Point07°C (100% RH)
AAT5.2°C
QNH1012 hPa
Density Alt-551 ft
Elevation194 ft
Report Wrong Elevation
Raw Report
METAR EPZG 250300Z 08003KT 6000 FEW003 OVC007 07/07 Q1012 =

Extra information for EPZG:More info

Metar Taf Metar & Taf Last 4 Metars F.Rules Stats Wind Profile Meteogram Temp Stats Airport Information Weather charts Add Link Nearby VenuesMetar ALERT Operation Metar Decoded Social comments